createdAt,value
2022-08-26T00:00:54.585Z,20.82
2022-08-26T00:01:54.949Z,20.82
2022-08-26T00:02:55.140Z,20.82
2022-08-26T00:03:55.509Z,20.84
2022-08-26T00:04:55.691Z,20.82
2022-08-26T00:05:56.025Z,20.80
2022-08-26T00:06:56.370Z,20.79
2022-08-26T00:07:56.684Z,20.79
2022-08-26T00:08:57.045Z,20.77
2022-08-26T00:09:57.232Z,20.79
2022-08-26T00:10:57.526Z,20.79
2022-08-26T00:11:57.827Z,20.79
2022-08-26T00:12:58.166Z,20.76
2022-08-26T00:13:58.495Z,20.79
2022-08-26T00:14:58.826Z,20.77
2022-08-26T00:15:59.100Z,20.77
2022-08-26T00:16:59.518Z,20.77
2022-08-26T00:17:59.739Z,20.77
2022-08-26T00:19:00.093Z,20.77
2022-08-26T00:20:00.408Z,20.77
2022-08-26T00:21:00.721Z,20.76
2022-08-26T00:22:02.007Z,20.74
2022-08-26T00:23:01.328Z,20.73
2022-08-26T00:24:01.520Z,20.73
2022-08-26T00:25:01.843Z,20.73
2022-08-26T00:26:02.181Z,20.72
2022-08-26T00:27:02.503Z,20.73
2022-08-26T00:28:02.823Z,20.72
2022-08-26T00:29:03.160Z,20.72
2022-08-26T00:30:03.434Z,20.69
2022-08-26T00:31:03.733Z,20.70
2022-08-26T00:32:04.175Z,20.69
2022-08-26T00:33:04.384Z,20.69
2022-08-26T00:34:04.698Z,20.67
2022-08-26T00:35:04.979Z,20.67
2022-08-26T00:36:05.246Z,20.69
2022-08-26T00:37:08.966Z,20.66
2022-08-26T00:38:05.906Z,20.66
2022-08-26T00:39:06.167Z,20.64
2022-08-26T00:40:06.491Z,20.64
2022-08-26T00:41:06.808Z,20.64
2022-08-26T00:42:07.121Z,20.67
2022-08-26T00:43:09.490Z,20.67
2022-08-26T00:44:07.781Z,20.69
2022-08-26T00:45:11.704Z,20.69
2022-08-26T00:46:08.481Z,20.67
2022-08-26T00:47:08.702Z,20.64
2022-08-26T00:48:09.027Z,20.62
2022-08-26T00:49:12.112Z,20.61
2022-08-26T00:50:09.674Z,20.61
2022-08-26T00:51:09.933Z,20.61
2022-08-26T00:52:12.127Z,20.58
2022-08-26T00:53:10.572Z,20.57
2022-08-26T00:54:10.925Z,20.55
2022-08-26T00:55:11.204Z,20.55
2022-08-26T00:56:11.524Z,20.51
2022-08-26T00:57:16.047Z,20.48
2022-08-26T00:58:12.109Z,20.43
2022-08-26T00:59:12.438Z,20.43
2022-08-26T01:00:12.766Z,20.42
2022-08-26T01:01:13.178Z,20.42
2022-08-26T01:02:20.160Z,20.41
2022-08-26T01:03:14.679Z,20.39
2022-08-26T01:04:13.960Z,20.39
2022-08-26T01:05:14.297Z,20.39
2022-08-26T01:06:14.631Z,20.39
2022-08-26T01:07:14.959Z,20.36
2022-08-26T01:08:15.293Z,20.38
2022-08-26T01:09:15.540Z,20.36
2022-08-26T01:10:15.862Z,20.38
2022-08-26T01:11:16.183Z,20.39
2022-08-26T01:12:16.453Z,20.38
2022-08-26T01:13:17.742Z,20.39
2022-08-26T01:14:17.053Z,20.38
2022-08-26T01:15:17.398Z,20.36
2022-08-26T01:16:17.728Z,20.35
2022-08-26T01:17:18.034Z,20.36
2022-08-26T01:18:18.351Z,20.38
2022-08-26T01:19:18.704Z,20.38
2022-08-26T01:20:18.895Z,20.36
2022-08-26T01:21:19.234Z,20.33
2022-08-26T01:22:19.515Z,20.33
2022-08-26T01:23:21.630Z,20.33
2022-08-26T01:24:20.097Z,20.32
2022-08-26T01:25:20.412Z,20.33
2022-08-26T01:26:20.737Z,20.33
2022-08-26T01:27:21.048Z,20.33
2022-08-26T01:28:21.366Z,20.32
2022-08-26T01:29:21.702Z,20.33
2022-08-26T01:30:22.033Z,20.33
2022-08-26T01:31:22.396Z,20.32
2022-08-26T01:32:22.591Z,20.31
2022-08-26T01:33:22.909Z,20.32
2022-08-26T01:34:23.161Z,20.33
2022-08-26T01:35:23.434Z,20.31
2022-08-26T01:36:23.773Z,20.29
2022-08-26T01:37:24.085Z,20.29
2022-08-26T01:38:24.405Z,20.31
2022-08-26T01:39:24.713Z,20.29
2022-08-26T01:40:25.039Z,20.23
2022-08-26T01:41:27.193Z,20.24
2022-08-26T01:42:25.508Z,20.21
2022-08-26T01:43:25.819Z,20.21
2022-08-26T01:44:26.151Z,20.20
2022-08-26T01:45:26.530Z,20.18
2022-08-26T01:46:26.791Z,20.17
2022-08-26T01:47:26.995Z,20.17
2022-08-26T01:48:27.303Z,20.17
2022-08-26T01:49:27.630Z,20.17
2022-08-26T01:50:30.471Z,20.17
2022-08-26T01:51:28.270Z,20.17
2022-08-26T01:52:28.580Z,20.16
2022-08-26T01:53:28.900Z,20.16
2022-08-26T01:54:29.250Z,20.16
2022-08-26T01:55:32.989Z,20.16
2022-08-26T01:56:33.249Z,20.16
2022-08-26T01:57:30.142Z,20.16
2022-08-26T01:58:30.493Z,20.16
2022-08-26T01:59:30.832Z,20.16
2022-08-26T02:00:31.171Z,20.16
2022-08-26T02:01:31.524Z,20.14
2022-08-26T02:02:31.815Z,20.14
2022-08-26T02:03:32.184Z,20.14
2022-08-26T02:04:32.525Z,20.13
2022-08-26T02:05:32.781Z,20.14
2022-08-26T02:06:33.103Z,20.14
2022-08-26T02:07:33.396Z,20.14
2022-08-26T02:08:33.695Z,20.14
2022-08-26T02:09:34.035Z,20.14
2022-08-26T02:10:35.357Z,20.13
2022-08-26T02:11:34.656Z,20.11
2022-08-26T02:12:35.007Z,20.11
2022-08-26T02:13:35.337Z,20.11
2022-08-26T02:14:35.658Z,20.10
2022-08-26T02:15:36.966Z,20.08
2022-08-26T02:16:36.314Z,20.08
2022-08-26T02:17:36.531Z,20.05
2022-08-26T02:18:36.778Z,20.05
2022-08-26T02:19:37.136Z,20.06
2022-08-26T02:20:37.450Z,20.06
2022-08-26T02:21:37.782Z,20.08
2022-08-26T02:22:38.020Z,20.08
2022-08-26T02:23:38.339Z,20.06
2022-08-26T02:24:38.681Z,20.08
2022-08-26T02:25:38.988Z,20.05
2022-08-26T02:26:39.333Z,20.06
2022-08-26T02:27:39.642Z,20.05
2022-08-26T02:28:39.976Z,20.05
2022-08-26T02:29:40.304Z,20.03
2022-08-26T02:30:40.648Z,20.02
2022-08-26T02:31:40.989Z,20.03
2022-08-26T02:32:41.435Z,20.02
2022-08-26T02:33:43.197Z,20.02
2022-08-26T02:34:41.975Z,20.01
2022-08-26T02:35:42.300Z,20.01
2022-08-26T02:36:42.634Z,20.01
2022-08-26T02:37:42.948Z,20.01
2022-08-26T02:38:43.286Z,20.02
2022-08-26T02:39:43.679Z,19.99
2022-08-26T02:40:43.910Z,19.99
2022-08-26T02:41:45.292Z,19.99
2022-08-26T02:42:44.538Z,19.98
2022-08-26T02:43:44.851Z,19.98
2022-08-26T02:44:45.199Z,19.98
2022-08-26T02:45:45.511Z,19.96
2022-08-26T02:46:47.017Z,19.96
2022-08-26T02:47:46.072Z,19.96
2022-08-26T02:48:46.371Z,19.96
2022-08-26T02:49:47.369Z,19.99
2022-08-26T02:50:46.909Z,19.98
2022-08-26T02:51:47.255Z,19.96
2022-08-26T02:52:47.572Z,19.98
2022-08-26T02:53:47.893Z,19.98
2022-08-26T02:54:48.243Z,19.95
2022-08-26T02:55:48.504Z,19.96
2022-08-26T02:56:48.824Z,19.98
2022-08-26T02:57:49.154Z,19.95
2022-08-26T02:58:49.425Z,19.94
2022-08-26T02:59:49.748Z,19.94
2022-08-26T03:00:53.423Z,19.94
2022-08-26T03:01:50.414Z,19.94
2022-08-26T03:02:50.720Z,19.91
2022-08-26T03:03:51.027Z,19.91
2022-08-26T03:04:57.345Z,19.91
2022-08-26T03:05:52.620Z,19.92
2022-08-26T03:06:52.751Z,19.91
2022-08-26T03:07:52.193Z,19.91
2022-08-26T03:08:52.551Z,19.88
2022-08-26T03:09:52.759Z,19.88
2022-08-26T03:10:53.021Z,19.88
2022-08-26T03:11:53.340Z,19.87
2022-08-26T03:12:53.682Z,19.88
2022-08-26T03:13:53.993Z,19.87
2022-08-26T03:14:54.326Z,19.87
2022-08-26T03:15:54.669Z,19.87
2022-08-26T03:16:54.962Z,19.84
2022-08-26T03:17:55.233Z,19.86
2022-08-26T03:18:55.553Z,19.86
2022-08-26T03:19:57.374Z,19.87
2022-08-26T03:20:56.203Z,19.86
2022-08-26T03:21:57.952Z,19.84
2022-08-26T03:22:56.816Z,19.83
2022-08-26T03:23:58.754Z,19.84
2022-08-26T03:24:57.406Z,19.83
2022-08-26T03:25:57.606Z,19.81
2022-08-26T03:26:57.934Z,19.81
2022-08-26T03:27:59.424Z,19.80
2022-08-26T03:28:58.557Z,19.83
2022-08-26T03:29:58.890Z,19.83
2022-08-26T03:30:59.257Z,19.81
2022-08-26T03:31:59.570Z,19.81
2022-08-26T03:32:59.888Z,19.81
2022-08-26T03:34:00.190Z,19.81
2022-08-26T03:35:00.528Z,19.80
2022-08-26T03:36:00.851Z,19.80
2022-08-26T03:37:01.192Z,19.80
2022-08-26T03:38:01.522Z,19.77
2022-08-26T03:39:01.773Z,19.77
2022-08-26T03:40:02.126Z,19.77
2022-08-26T03:41:02.331Z,19.77
2022-08-26T03:42:02.594Z,19.78
2022-08-26T03:43:02.938Z,19.76
2022-08-26T03:44:03.183Z,19.77
2022-08-26T03:45:03.472Z,19.76
2022-08-26T03:46:03.809Z,19.74
2022-08-26T03:47:04.054Z,19.76
2022-08-26T03:48:04.327Z,19.74
2022-08-26T03:49:04.687Z,19.74
2022-08-26T03:50:05.016Z,19.73
2022-08-26T03:51:05.214Z,19.74
2022-08-26T03:52:05.716Z,19.73
2022-08-26T03:53:07.452Z,19.71
2022-08-26T03:54:08.211Z,19.71
2022-08-26T03:55:06.473Z,19.71
2022-08-26T03:56:06.690Z,19.71
2022-08-26T03:57:07.028Z,19.71
2022-08-26T03:58:07.249Z,19.71
2022-08-26T03:59:07.804Z,19.71
2022-08-26T04:00:07.894Z,19.73
2022-08-26T04:01:08.132Z,19.73
2022-08-26T04:02:11.636Z,19.71
2022-08-26T04:03:09.950Z,19.73
2022-08-26T04:04:09.009Z,19.69
2022-08-26T04:05:09.231Z,19.68
2022-08-26T04:06:09.581Z,19.68
2022-08-26T04:07:09.820Z,19.69
2022-08-26T04:08:10.142Z,19.68
2022-08-26T04:09:10.473Z,19.69
2022-08-26T04:10:10.694Z,19.69
2022-08-26T04:11:10.955Z,19.68
2022-08-26T04:12:11.233Z,19.68
2022-08-26T04:13:11.604Z,19.68
2022-08-26T04:14:11.879Z,19.68
2022-08-26T04:15:12.107Z,19.68
2022-08-26T04:16:12.373Z,19.68
2022-08-26T04:17:12.575Z,19.68
2022-08-26T04:18:12.916Z,19.69
2022-08-26T04:19:13.286Z,19.71
2022-08-26T04:20:13.529Z,19.69
2022-08-26T04:21:15.393Z,19.71
2022-08-26T04:22:14.178Z,19.74
2022-08-26T04:23:14.422Z,19.74
2022-08-26T04:24:14.688Z,19.76
2022-08-26T04:25:14.917Z,19.77
2022-08-26T04:26:15.269Z,19.78
2022-08-26T04:27:15.509Z,19.80
2022-08-26T04:28:15.810Z,19.81
2022-08-26T04:29:16.052Z,19.81
2022-08-26T04:30:16.721Z,19.83
2022-08-26T04:31:16.660Z,19.84
2022-08-26T04:32:16.832Z,19.84
2022-08-26T04:33:17.081Z,19.86
2022-08-26T04:34:18.412Z,19.87
2022-08-26T04:35:17.724Z,19.87
2022-08-26T04:36:20.192Z,19.88
2022-08-26T04:37:18.301Z,19.91
2022-08-26T04:38:18.545Z,19.94
2022-08-26T04:39:18.822Z,19.95
2022-08-26T04:40:19.136Z,19.95
2022-08-26T04:41:19.375Z,19.95
2022-08-26T04:42:26.158Z,19.95
2022-08-26T04:43:20.977Z,19.95
2022-08-26T04:44:20.288Z,19.96
2022-08-26T04:45:22.683Z,19.96
2022-08-26T04:46:20.962Z,19.99
2022-08-26T04:47:21.232Z,20.01
2022-08-26T04:48:21.486Z,20.01
2022-08-26T04:49:21.749Z,20.02
2022-08-26T04:50:21.999Z,20.03
2022-08-26T04:51:22.275Z,20.03
2022-08-26T04:52:22.529Z,20.05
2022-08-26T04:53:22.820Z,20.05
2022-08-26T04:54:23.142Z,20.08
2022-08-26T04:55:25.290Z,20.10
2022-08-26T04:56:24.729Z,20.11
2022-08-26T04:57:24.045Z,20.13
2022-08-26T04:58:24.316Z,20.17
2022-08-26T04:59:24.654Z,20.18
2022-08-26T05:00:24.893Z,20.20
2022-08-26T05:01:25.149Z,20.24
2022-08-26T05:02:25.403Z,20.29
2022-08-26T05:03:25.654Z,20.33
2022-08-26T05:04:26.136Z,20.39
2022-08-26T05:05:26.235Z,20.41
2022-08-26T05:06:26.564Z,20.43
2022-08-26T05:07:26.837Z,20.47
2022-08-26T05:08:27.089Z,20.48
2022-08-26T05:09:27.328Z,20.50
2022-08-26T05:10:27.596Z,20.51
2022-08-26T05:11:27.897Z,20.52
2022-08-26T05:12:28.214Z,20.54
2022-08-26T05:13:28.450Z,20.59
2022-08-26T05:14:28.818Z,20.59
2022-08-26T05:15:29.059Z,20.61
2022-08-26T05:16:29.309Z,20.64
2022-08-26T05:17:29.624Z,20.64
2022-08-26T05:18:29.889Z,20.69
2022-08-26T05:19:30.170Z,20.72
2022-08-26T05:20:30.415Z,20.73
2022-08-26T05:21:30.652Z,20.74
2022-08-26T05:22:30.922Z,20.76
2022-08-26T05:23:31.192Z,20.77
2022-08-26T05:24:31.482Z,20.79
2022-08-26T05:25:31.738Z,20.84
2022-08-26T05:26:31.994Z,20.91
2022-08-26T05:27:32.257Z,21.03
2022-08-26T05:28:32.495Z,21.16
2022-08-26T05:29:32.756Z,21.27
2022-08-26T05:30:33.039Z,21.40
2022-08-26T05:31:33.365Z,21.49
2022-08-26T05:32:33.625Z,21.59
2022-08-26T05:33:33.885Z,21.67
2022-08-26T05:34:34.194Z,21.72
2022-08-26T05:35:34.382Z,21.79
2022-08-26T05:36:34.933Z,21.83
2022-08-26T05:37:34.946Z,21.84
2022-08-26T05:38:35.156Z,21.86
2022-08-26T05:39:35.414Z,21.88
2022-08-26T05:40:35.759Z,21.98
2022-08-26T05:41:36.725Z,22.03
2022-08-26T05:42:36.159Z,22.05
2022-08-26T05:43:36.403Z,22.03
2022-08-26T05:44:53.819Z,22.05
2022-08-26T05:45:40.223Z,22.03
2022-08-26T05:46:37.238Z,22.00
2022-08-26T05:47:37.550Z,22.00
2022-08-26T05:48:37.813Z,22.02
2022-08-26T05:49:43.763Z,22.06
2022-08-26T05:50:39.306Z,22.10
2022-08-26T05:51:38.643Z,22.21
2022-08-26T05:52:38.910Z,22.33
2022-08-26T05:53:39.178Z,22.39
2022-08-26T05:54:39.497Z,22.49
2022-08-26T05:55:39.668Z,22.49
2022-08-26T05:56:39.988Z,22.54
2022-08-26T05:57:42.156Z,22.61
2022-08-26T05:58:40.561Z,22.68
2022-08-26T05:59:40.810Z,22.75
2022-08-26T06:00:41.688Z,22.80
2022-08-26T06:01:41.416Z,22.79
2022-08-26T06:02:41.705Z,22.75
2022-08-26T06:03:41.944Z,22.76
2022-08-26T06:04:42.202Z,22.77
2022-08-26T06:05:42.462Z,22.73
2022-08-26T06:06:42.735Z,22.72
2022-08-26T06:07:43.023Z,22.67
2022-08-26T06:08:43.296Z,22.67
2022-08-26T06:09:43.555Z,22.61
2022-08-26T06:10:43.827Z,22.55
2022-08-26T06:11:44.107Z,22.52
2022-08-26T06:12:44.364Z,22.60
2022-08-26T06:13:44.610Z,22.64
2022-08-26T06:14:44.930Z,22.64
2022-08-26T06:15:45.203Z,22.61
2022-08-26T06:16:45.449Z,22.60
2022-08-26T06:17:45.699Z,22.58
2022-08-26T06:18:45.989Z,22.64
2022-08-26T06:19:46.263Z,22.70
2022-08-26T06:20:56.925Z,22.79
2022-08-26T06:21:47.878Z,22.91
2022-08-26T06:22:48.143Z,22.95
2022-08-26T06:23:47.404Z,23.00
2022-08-26T06:24:47.668Z,22.98
2022-08-26T06:25:47.937Z,23.00
2022-08-26T06:26:50.950Z,23.02
2022-08-26T06:27:48.461Z,23.05
2022-08-26T06:28:48.715Z,23.05
2022-08-26T06:29:48.942Z,23.07
2022-08-26T06:30:49.262Z,23.12
2022-08-26T06:31:49.504Z,22.98
2022-08-26T06:32:49.763Z,22.83
2022-08-26T06:33:50.035Z,22.68
2022-08-26T06:34:50.312Z,22.58
2022-08-26T06:35:50.558Z,22.51
2022-08-26T06:36:50.883Z,22.49
2022-08-26T06:37:51.113Z,22.52
2022-08-26T06:38:51.807Z,22.46
2022-08-26T06:39:51.715Z,22.43
2022-08-26T06:40:51.950Z,22.39
2022-08-26T06:41:52.203Z,22.36
2022-08-26T06:42:52.439Z,22.31
2022-08-26T06:43:52.694Z,22.31
2022-08-26T06:44:52.989Z,22.28
2022-08-26T06:45:53.237Z,22.30
2022-08-26T06:46:53.464Z,22.33
2022-08-26T06:47:53.701Z,22.35
2022-08-26T06:48:54.006Z,22.39
2022-08-26T06:49:54.263Z,22.42
2022-08-26T06:50:54.542Z,22.40
2022-08-26T06:51:54.786Z,22.43
2022-08-26T06:52:55.169Z,22.45
2022-08-26T06:53:55.435Z,22.49
2022-08-26T06:54:55.685Z,22.52
2022-08-26T06:55:55.930Z,22.52
2022-08-26T06:56:56.266Z,22.57
2022-08-26T06:57:56.587Z,22.54
2022-08-26T06:58:56.868Z,22.60
2022-08-26T06:59:57.127Z,22.62
2022-08-26T07:01:01.971Z,22.62
2022-08-26T07:01:58.729Z,22.65
2022-08-26T07:02:57.930Z,22.65
2022-08-26T07:03:58.183Z,22.68
2022-08-26T07:04:58.451Z,22.70
2022-08-26T07:05:58.702Z,22.75
2022-08-26T07:06:58.972Z,22.75
2022-08-26T07:07:59.265Z,22.77
2022-08-26T07:08:59.582Z,22.82
2022-08-26T07:09:59.731Z,22.82
2022-08-26T07:10:59.972Z,22.82
2022-08-26T07:12:00.204Z,22.82
2022-08-26T07:13:00.471Z,22.83
2022-08-26T07:14:00.734Z,22.80
2022-08-26T07:15:01.075Z,22.80
2022-08-26T07:16:02.882Z,22.82
2022-08-26T07:17:01.678Z,22.85
2022-08-26T07:18:01.965Z,22.82
2022-08-26T07:19:03.473Z,22.82
2022-08-26T07:20:03.496Z,22.80
2022-08-26T07:21:02.846Z,22.85
2022-08-26T07:22:03.461Z,22.86
2022-08-26T07:23:03.359Z,22.86
2022-08-26T07:24:03.640Z,22.83
2022-08-26T07:25:03.909Z,22.83
2022-08-26T07:26:04.246Z,22.85
2022-08-26T07:27:05.512Z,22.86
2022-08-26T07:28:04.866Z,22.82
2022-08-26T07:29:05.125Z,22.83
2022-08-26T07:30:05.372Z,22.82
2022-08-26T07:31:05.704Z,22.83
2022-08-26T07:32:05.873Z,22.85
2022-08-26T07:33:06.181Z,22.83
2022-08-26T07:34:06.456Z,22.86
2022-08-26T07:35:06.717Z,22.88
2022-08-26T07:36:07.005Z,22.90
2022-08-26T07:37:08.901Z,22.91
2022-08-26T07:38:07.557Z,22.92
2022-08-26T07:39:07.851Z,22.95
2022-08-26T07:40:08.131Z,23.00
2022-08-26T07:41:08.429Z,23.04
2022-08-26T07:42:08.683Z,23.07
2022-08-26T07:43:09.098Z,23.09
2022-08-26T07:44:09.239Z,23.12
2022-08-26T07:45:09.449Z,23.15
2022-08-26T07:46:13.257Z,23.17
2022-08-26T07:47:24.654Z,23.17
2022-08-26T07:48:11.310Z,23.20
2022-08-26T07:49:10.629Z,23.20
2022-08-26T07:50:10.893Z,23.22
2022-08-26T07:51:11.221Z,23.27
2022-08-26T07:52:11.495Z,23.32
2022-08-26T07:53:11.704Z,23.28
2022-08-26T07:54:11.991Z,23.31
2022-08-26T07:55:12.277Z,23.36
2022-08-26T07:56:12.494Z,23.38
2022-08-26T07:57:12.756Z,23.40
2022-08-26T07:58:13.006Z,23.40
2022-08-26T07:59:13.695Z,23.40
2022-08-26T08:00:13.540Z,23.42
2022-08-26T08:01:13.956Z,23.46
2022-08-26T08:02:14.859Z,23.47
2022-08-26T08:03:14.368Z,23.50
2022-08-26T08:04:14.668Z,23.53
2022-08-26T08:05:14.940Z,23.54
2022-08-26T08:06:15.139Z,23.57
2022-08-26T08:07:15.400Z,23.58
2022-08-26T08:08:26.988Z,23.65
2022-08-26T08:09:17.008Z,23.69
2022-08-26T08:10:16.232Z,23.72
2022-08-26T08:11:16.500Z,23.76
2022-08-26T08:12:16.748Z,23.78
2022-08-26T08:13:17.041Z,23.83
2022-08-26T08:14:17.372Z,23.84
2022-08-26T08:15:17.636Z,23.87
2022-08-26T08:16:17.912Z,23.88
2022-08-26T08:17:18.164Z,23.90
2022-08-26T08:18:20.503Z,23.91
2022-08-26T08:19:18.830Z,23.95
2022-08-26T08:20:19.081Z,23.97
2022-08-26T08:21:21.264Z,23.97
2022-08-26T08:22:19.775Z,24.03
2022-08-26T08:23:19.748Z,24.09
2022-08-26T08:24:20.030Z,24.12
2022-08-26T08:25:20.311Z,24.16
2022-08-26T08:26:20.565Z,24.20
2022-08-26T08:27:23.785Z,24.22
2022-08-26T08:28:21.088Z,24.25
2022-08-26T08:29:21.382Z,24.27
2022-08-26T08:30:23.122Z,24.28
2022-08-26T08:31:52.019Z,24.35
2022-08-26T08:32:23.201Z,24.39
2022-08-26T08:33:22.522Z,24.40
2022-08-26T08:34:22.833Z,24.39
2022-08-26T08:35:23.030Z,24.42
2022-08-26T08:36:23.297Z,24.47
2022-08-26T08:37:23.577Z,24.52
2022-08-26T08:38:23.833Z,24.57
2022-08-26T08:39:24.257Z,24.60
2022-08-26T08:40:24.528Z,24.61
2022-08-26T08:41:24.823Z,24.60
2022-08-26T08:42:25.107Z,24.60
2022-08-26T08:43:25.368Z,24.62
2022-08-26T08:45:25.862Z,24.71
2022-08-26T08:46:26.568Z,24.77
2022-08-26T08:47:26.408Z,24.81
2022-08-26T08:48:27.910Z,24.83
2022-08-26T08:49:26.948Z,24.83
2022-08-26T08:50:27.161Z,24.85
2022-08-26T08:51:27.429Z,24.88
2022-08-26T08:52:27.760Z,24.90
2022-08-26T08:53:28.051Z,24.90
2022-08-26T08:54:28.315Z,24.96
2022-08-26T08:55:28.580Z,24.96
2022-08-26T08:56:28.866Z,25.00
2022-08-26T08:57:29.086Z,25.00
2022-08-26T08:58:29.455Z,25.05
2022-08-26T08:59:29.724Z,25.08
2022-08-26T09:00:30.590Z,25.09
2022-08-26T09:01:30.296Z,25.10
2022-08-26T09:02:31.774Z,25.15
2022-08-26T09:03:30.842Z,25.21
2022-08-26T09:04:31.090Z,25.28
2022-08-26T09:05:31.309Z,25.30
2022-08-26T09:06:31.592Z,25.38
2022-08-26T09:07:34.515Z,25.42
2022-08-26T09:08:32.244Z,25.42
2022-08-26T09:09:32.463Z,25.45
2022-08-26T09:10:32.713Z,25.43
2022-08-26T09:11:32.949Z,25.50
2022-08-26T09:12:33.204Z,25.54
2022-08-26T09:13:33.455Z,25.61
2022-08-26T09:14:33.720Z,25.69
2022-08-26T09:15:41.597Z,25.73
2022-08-26T09:16:34.392Z,25.75
2022-08-26T09:17:34.587Z,25.79
2022-08-26T09:18:34.879Z,25.83
2022-08-26T09:19:35.165Z,25.85
2022-08-26T09:20:35.524Z,25.85
2022-08-26T09:21:35.739Z,25.88
2022-08-26T09:22:36.126Z,25.92
2022-08-26T09:23:36.365Z,25.94
2022-08-26T09:24:41.642Z,25.92
2022-08-26T09:25:37.782Z,25.99
2022-08-26T09:26:37.060Z,26.01
2022-08-26T09:27:37.693Z,26.06
2022-08-26T09:28:37.597Z,26.13
2022-08-26T09:29:37.942Z,26.20
2022-08-26T09:30:38.294Z,26.23
2022-08-26T09:31:38.499Z,26.29
2022-08-26T09:32:38.823Z,26.28
2022-08-26T09:33:39.056Z,26.30
2022-08-26T09:34:39.356Z,26.32
2022-08-26T09:35:39.658Z,26.35
2022-08-26T09:36:41.464Z,26.40
2022-08-26T09:37:40.229Z,26.40
2022-08-26T09:38:40.397Z,26.37
2022-08-26T09:39:40.695Z,26.37
2022-08-26T09:40:41.008Z,26.37
2022-08-26T09:41:41.420Z,26.35
2022-08-26T09:42:41.717Z,26.33
2022-08-26T09:43:42.082Z,26.33
2022-08-26T09:44:42.381Z,26.36
2022-08-26T09:45:50.147Z,26.40
2022-08-26T09:46:43.964Z,26.44
2022-08-26T09:47:43.312Z,26.45
2022-08-26T09:48:43.613Z,26.47
2022-08-26T09:49:43.892Z,26.51
2022-08-26T09:50:44.234Z,26.51
2022-08-26T09:51:44.481Z,26.57
2022-08-26T09:52:45.778Z,26.65
2022-08-26T09:53:44.956Z,26.69
2022-08-26T09:54:45.470Z,26.73
2022-08-26T09:55:45.470Z,26.76
2022-08-26T09:56:45.760Z,26.77
2022-08-26T09:57:46.050Z,26.80
2022-08-26T09:58:46.318Z,26.80
2022-08-26T09:59:46.629Z,26.73
2022-08-26T10:00:46.967Z,26.67
2022-08-26T10:01:47.372Z,26.63
2022-08-26T10:02:49.457Z,26.65
2022-08-26T10:03:47.813Z,26.69
2022-08-26T10:04:48.162Z,26.73
2022-08-26T10:05:48.493Z,26.76
2022-08-26T10:06:48.834Z,26.77
2022-08-26T10:07:49.117Z,26.77
2022-08-26T10:08:49.431Z,26.80
2022-08-26T10:09:49.675Z,26.80
2022-08-26T10:10:53.401Z,26.77
2022-08-26T10:11:50.297Z,26.73
2022-08-26T10:12:50.576Z,26.73
2022-08-26T10:13:50.977Z,26.72
2022-08-26T10:14:51.101Z,26.76
2022-08-26T10:15:51.391Z,26.76
2022-08-26T10:16:51.760Z,26.82
2022-08-26T10:17:51.930Z,26.84
2022-08-26T10:18:55.670Z,26.85
2022-08-26T10:19:55.824Z,26.88
2022-08-26T10:20:52.857Z,26.88
2022-08-26T10:21:53.148Z,26.89
2022-08-26T10:22:53.528Z,26.89
2022-08-26T10:23:53.775Z,26.88
2022-08-26T10:24:55.253Z,26.85
2022-08-26T10:25:54.367Z,26.84
2022-08-26T10:26:54.665Z,26.87
2022-08-26T10:27:55.695Z,26.92
2022-08-26T10:28:55.175Z,26.94
2022-08-26T10:29:55.456Z,26.94
2022-08-26T10:30:55.768Z,26.91
2022-08-26T10:31:58.788Z,26.91
2022-08-26T10:32:57.356Z,26.95
2022-08-26T10:33:58.879Z,26.97
2022-08-26T10:34:57.623Z,26.97
2022-08-26T10:35:57.112Z,26.99
2022-08-26T10:37:14.355Z,27.04
2022-08-26T10:37:58.723Z,27.04
2022-08-26T10:38:58.031Z,27.07
2022-08-26T10:39:58.561Z,27.04
2022-08-26T10:40:58.682Z,27.07
2022-08-26T10:41:58.966Z,27.13
2022-08-26T10:42:59.275Z,27.24
2022-08-26T10:43:59.415Z,27.31
2022-08-26T10:44:59.699Z,27.41
2022-08-26T10:45:59.964Z,27.40
2022-08-26T10:47:00.320Z,27.41
2022-08-26T10:48:00.458Z,27.41
2022-08-26T10:49:00.749Z,27.37
2022-08-26T10:50:03.214Z,27.37
2022-08-26T10:51:01.273Z,27.43
2022-08-26T10:52:01.630Z,27.43
2022-08-26T10:53:01.915Z,27.44
2022-08-26T10:54:02.151Z,27.47
2022-08-26T10:55:03.107Z,27.47
2022-08-26T10:56:02.752Z,27.51
2022-08-26T10:57:03.093Z,27.55
2022-08-26T10:58:04.932Z,27.55
2022-08-26T10:59:03.584Z,27.49
2022-08-26T11:00:04.343Z,27.47
2022-08-26T11:01:10.115Z,27.47
2022-08-26T11:02:05.494Z,27.50
2022-08-26T11:03:04.816Z,27.55
2022-08-26T11:04:05.111Z,27.55
2022-08-26T11:05:05.366Z,27.60
2022-08-26T11:06:05.639Z,27.65
2022-08-26T11:07:05.959Z,27.66
2022-08-26T11:08:06.224Z,27.72
2022-08-26T11:09:06.463Z,27.74
2022-08-26T11:10:06.763Z,27.84
2022-08-26T11:11:07.082Z,27.82
2022-08-26T11:12:10.323Z,27.90
2022-08-26T11:13:07.712Z,27.97
2022-08-26T11:14:07.913Z,28.02
2022-08-26T11:15:08.196Z,28.02
2022-08-26T11:16:08.507Z,28.00
2022-08-26T11:17:08.715Z,28.03
2022-08-26T11:18:09.082Z,28.03
2022-08-26T11:19:09.343Z,27.99
2022-08-26T11:20:13.676Z,28.02
2022-08-26T11:21:10.904Z,28.07
2022-08-26T11:22:10.253Z,28.12
2022-08-26T11:23:10.495Z,28.18
2022-08-26T11:24:10.750Z,28.14
2022-08-26T11:25:11.454Z,28.07
2022-08-26T11:26:11.295Z,28.03
2022-08-26T11:27:12.638Z,28.03
2022-08-26T11:28:11.839Z,28.03
2022-08-26T11:29:12.884Z,28.04
2022-08-26T11:30:12.347Z,28.04
2022-08-26T11:31:12.574Z,28.06
2022-08-26T11:32:12.861Z,28.06
2022-08-26T11:33:13.113Z,28.11
2022-08-26T11:34:13.423Z,28.15
2022-08-26T11:35:13.682Z,28.17
2022-08-26T11:36:13.954Z,28.18
2022-08-26T11:37:14.263Z,28.18
2022-08-26T11:38:14.485Z,28.17
2022-08-26T11:39:14.754Z,28.17
2022-08-26T11:40:16.027Z,28.19
2022-08-26T11:41:16.105Z,28.24
2022-08-26T11:42:15.596Z,28.25
2022-08-26T11:43:15.860Z,28.29
2022-08-26T11:44:16.085Z,28.33
2022-08-26T11:45:16.377Z,28.34
2022-08-26T11:46:16.694Z,28.33
2022-08-26T11:47:16.903Z,28.31
2022-08-26T11:48:17.179Z,28.27
2022-08-26T11:49:17.441Z,28.30
2022-08-26T11:50:17.777Z,28.22
2022-08-26T11:51:18.011Z,28.19
2022-08-26T11:52:18.301Z,28.18
2022-08-26T11:53:18.543Z,28.17
2022-08-26T11:54:30.530Z,28.15
2022-08-26T11:55:20.145Z,28.17
2022-08-26T11:56:19.459Z,28.11
2022-08-26T11:57:19.633Z,28.14
2022-08-26T11:58:19.976Z,28.15
2022-08-26T11:59:20.315Z,28.19
2022-08-26T12:00:22.256Z,28.29
2022-08-26T12:01:20.895Z,28.34
2022-08-26T12:02:21.170Z,28.34
2022-08-26T12:03:21.610Z,28.34
2022-08-26T12:04:21.787Z,28.34
2022-08-26T12:05:22.070Z,28.37
2022-08-26T12:06:22.395Z,28.43
2022-08-26T12:07:23.980Z,28.44
2022-08-26T12:08:22.989Z,28.48
2022-08-26T12:09:23.281Z,28.49
2022-08-26T12:10:23.522Z,28.52
2022-08-26T12:11:24.881Z,28.55
2022-08-26T12:12:24.172Z,28.54
2022-08-26T12:13:26.458Z,28.54
2022-08-26T12:14:24.774Z,28.59
2022-08-26T12:15:25.015Z,28.68
2022-08-26T12:16:25.381Z,28.71
2022-08-26T12:17:25.545Z,28.67
2022-08-26T12:18:29.298Z,28.67
2022-08-26T12:19:27.430Z,28.64
2022-08-26T12:20:26.387Z,28.59
2022-08-26T12:21:26.647Z,28.52
2022-08-26T12:22:26.916Z,28.48
2022-08-26T12:23:27.166Z,28.41
2022-08-26T12:24:27.595Z,28.37
2022-08-26T12:25:27.871Z,28.33
2022-08-26T12:26:28.240Z,28.25
2022-08-26T12:27:28.340Z,28.22
2022-08-26T12:28:28.604Z,28.19
2022-08-26T12:29:28.852Z,28.15
2022-08-26T12:30:29.082Z,28.11
2022-08-26T12:31:29.482Z,28.06
2022-08-26T12:32:30.124Z,28.03
2022-08-26T12:33:29.945Z,28.02
2022-08-26T12:34:30.226Z,28.02
2022-08-26T12:35:30.545Z,27.97
2022-08-26T12:36:30.887Z,27.93
2022-08-26T12:37:31.166Z,27.87
2022-08-26T12:38:31.407Z,27.84
2022-08-26T12:39:31.646Z,27.81
2022-08-26T12:40:31.942Z,27.78
2022-08-26T12:41:32.188Z,27.75
2022-08-26T12:42:32.530Z,27.74
2022-08-26T12:43:32.671Z,27.72
2022-08-26T12:44:32.938Z,27.74
2022-08-26T12:45:33.375Z,27.77
2022-08-26T12:46:33.481Z,27.75
2022-08-26T12:47:42.942Z,27.77
2022-08-26T12:48:35.067Z,27.79
2022-08-26T12:49:34.416Z,27.84
2022-08-26T12:50:34.670Z,27.88
2022-08-26T12:51:34.954Z,27.88
2022-08-26T12:52:35.239Z,27.87
2022-08-26T12:53:35.495Z,27.88
2022-08-26T12:54:35.773Z,27.88
2022-08-26T12:55:36.047Z,27.87
2022-08-26T12:56:36.538Z,27.87
2022-08-26T12:57:36.667Z,27.87